createdAt,value
2019-03-19T00:00:28.367Z,7.43
2019-03-19T00:01:32.793Z,7.41
2019-03-19T00:03:40.881Z,7.37
2019-03-19T00:04:45.301Z,7.37
2019-03-19T00:05:49.700Z,7.35
2019-03-19T00:06:55.136Z,7.36
2019-03-19T00:09:04.577Z,7.34
2019-03-19T00:11:15.320Z,7.36
2019-03-19T00:12:19.749Z,7.36
2019-03-19T00:13:24.157Z,7.32
2019-03-19T00:14:28.560Z,7.31
2019-03-19T00:15:32.968Z,7.30
2019-03-19T00:17:40.939Z,7.31
2019-03-19T00:19:48.880Z,7.31
2019-03-19T00:20:53.367Z,7.30
2019-03-19T00:23:01.385Z,7.19
2019-03-19T00:25:09.805Z,7.18
2019-03-19T00:33:41.673Z,7.07
2019-03-19T00:37:56.869Z,7.08
2019-03-19T00:39:01.285Z,7.07
2019-03-19T00:42:16.144Z,7.03
2019-03-19T00:44:24.150Z,7.00
2019-03-19T00:45:28.869Z,6.98
2019-03-19T00:46:33.272Z,6.98
2019-03-19T00:47:37.675Z,6.99
2019-03-19T00:49:45.685Z,6.96
2019-03-19T00:56:09.371Z,6.91
2019-03-19T00:57:13.794Z,6.90
2019-03-19T00:58:18.295Z,6.86
2019-03-19T01:00:26.291Z,6.87
2019-03-19T01:04:43.934Z,6.82
2019-03-19T01:09:00.294Z,6.79
2019-03-19T01:11:15.712Z,6.80
2019-03-19T01:14:27.303Z,6.75
2019-03-19T01:19:46.383Z,6.67
2019-03-19T01:28:19.161Z,6.61
2019-03-19T01:29:23.607Z,6.62
2019-03-19T01:30:27.963Z,6.59
2019-03-19T01:31:33.618Z,6.55
2019-03-19T01:33:41.589Z,6.57
2019-03-19T01:35:49.656Z,6.55
2019-03-19T01:36:54.068Z,6.53
2019-03-19T01:39:02.063Z,6.50
2019-03-19T01:41:13.453Z,6.52
2019-03-19T01:43:21.454Z,6.50
2019-03-19T01:45:29.453Z,6.48
2019-03-19T01:46:33.815Z,6.48
2019-03-19T01:52:57.249Z,6.47
2019-03-19T01:54:01.639Z,6.47
2019-03-19T01:55:09.748Z,6.47
2019-03-19T01:59:24.924Z,6.43
2019-03-19T02:02:37.118Z,6.39
2019-03-19T02:03:41.861Z,6.40
2019-03-19T02:13:22.805Z,6.29
2019-03-19T02:16:34.344Z,6.23
2019-03-19T02:17:38.743Z,6.22
2019-03-19T02:18:43.172Z,6.24
2019-03-19T02:19:48.197Z,6.25
2019-03-19T02:21:56.198Z,6.26
2019-03-19T02:23:00.685Z,6.27
2019-03-19T02:29:24.603Z,6.22
2019-03-19T02:30:29.022Z,6.21
2019-03-19T02:32:37.013Z,6.20
2019-03-19T02:34:45.848Z,6.19
2019-03-19T02:35:51.264Z,6.18
2019-03-19T02:39:03.176Z,6.15
2019-03-19T02:40:11.147Z,6.08
2019-03-19T02:42:19.361Z,6.09
2019-03-19T02:43:24.597Z,6.08
2019-03-19T02:45:32.582Z,6.10
2019-03-19T02:47:42.333Z,6.05
2019-03-19T02:50:53.924Z,6.03
2019-03-19T02:53:02.252Z,6.04
2019-03-19T02:55:10.692Z,6.00
2019-03-19T02:58:22.944Z,6.00
2019-03-19T03:04:45.728Z,5.97
2019-03-19T03:05:50.156Z,5.93
2019-03-19T03:06:54.652Z,5.93
2019-03-19T03:12:16.901Z,5.94
2019-03-19T03:14:24.837Z,5.93
2019-03-19T03:19:43.671Z,5.88
2019-03-19T03:20:48.077Z,5.87
2019-03-19T03:21:52.594Z,5.85
2019-03-19T03:22:56.995Z,5.81
2019-03-19T03:24:01.396Z,5.82
2019-03-19T03:28:20.175Z,5.80
2019-03-19T03:30:28.162Z,5.72
2019-03-19T03:34:44.369Z,5.74
2019-03-19T03:35:48.879Z,5.74
2019-03-19T03:36:53.295Z,5.72
2019-03-19T03:39:01.505Z,5.70
2019-03-19T03:40:14.641Z,5.74
2019-03-19T03:42:22.864Z,5.76
2019-03-19T03:43:27.337Z,5.71
2019-03-19T03:44:31.743Z,5.71
2019-03-19T03:45:36.382Z,5.72
2019-03-19T03:46:40.973Z,5.72
2019-03-19T03:47:45.381Z,5.72
2019-03-19T03:49:53.505Z,5.70
2019-03-19T03:52:01.583Z,5.68
2019-03-19T03:53:06.297Z,5.68
2019-03-19T03:54:10.672Z,5.67
2019-03-19T03:55:18.185Z,5.67
2019-03-19T03:58:29.972Z,5.66
2019-03-19T03:59:34.366Z,5.64
2019-03-19T04:00:38.811Z,5.65
2019-03-19T04:01:43.221Z,5.63
2019-03-19T04:03:51.420Z,5.57
2019-03-19T04:05:59.623Z,5.59
2019-03-19T04:08:08.446Z,5.55
2019-03-19T04:09:12.803Z,5.57
2019-03-19T04:10:18.186Z,5.56
2019-03-19T04:11:22.897Z,5.53
2019-03-19T04:12:27.522Z,5.54
2019-03-19T04:14:37.336Z,5.50
2019-03-19T04:16:45.363Z,5.48
2019-03-19T04:17:49.763Z,5.46
2019-03-19T04:22:05.061Z,5.46
2019-03-19T04:23:09.453Z,5.44
2019-03-19T04:24:14.184Z,5.40
2019-03-19T04:26:22.172Z,5.41
2019-03-19T04:27:26.573Z,5.44
2019-03-19T04:28:31.006Z,5.46
2019-03-19T04:30:40.016Z,5.46
2019-03-19T04:31:44.458Z,5.47
2019-03-19T04:33:52.640Z,5.43
2019-03-19T04:37:04.219Z,5.41
2019-03-19T04:40:16.225Z,5.39
2019-03-19T04:42:24.542Z,5.35
2019-03-19T04:43:29.170Z,5.34
2019-03-19T04:44:33.548Z,5.36
2019-03-19T04:45:37.924Z,5.36
2019-03-19T04:50:56.733Z,5.34
2019-03-19T04:53:06.100Z,5.35
2019-03-19T04:54:10.467Z,5.35
2019-03-19T04:55:15.906Z,5.34
2019-03-19T04:58:27.500Z,5.29
2019-03-19T05:00:36.067Z,5.31
2019-03-19T05:01:40.521Z,5.31
2019-03-19T05:02:44.938Z,5.32
2019-03-19T05:03:49.287Z,5.31
2019-03-19T05:05:59.655Z,5.31
2019-03-19T05:07:05.000Z,5.30
2019-03-19T05:08:09.944Z,5.30
2019-03-19T05:09:14.664Z,5.29
2019-03-19T05:10:19.288Z,5.30
2019-03-19T05:13:32.094Z,5.31
2019-03-19T05:16:45.329Z,5.24
2019-03-19T05:17:49.731Z,5.22
2019-03-19T05:18:54.155Z,5.21
2019-03-19T05:24:12.926Z,5.21
2019-03-19T05:26:20.916Z,5.19
2019-03-19T05:27:25.938Z,5.18
2019-03-19T05:29:33.945Z,5.17
2019-03-19T05:32:45.677Z,5.19
2019-03-19T05:34:53.940Z,5.21
2019-03-19T05:37:02.883Z,5.22
2019-03-19T05:38:08.883Z,5.22
2019-03-19T05:43:28.090Z,5.16
2019-03-19T05:44:32.495Z,5.17
2019-03-19T05:45:36.913Z,5.17
2019-03-19T05:47:44.952Z,5.18
2019-03-19T05:49:53.215Z,5.17
2019-03-19T05:53:04.909Z,5.17
2019-03-19T05:55:13.694Z,5.19
2019-03-19T06:02:40.804Z,5.21
2019-03-19T06:03:45.303Z,5.23
2019-03-19T06:04:49.723Z,5.25
2019-03-19T06:05:54.129Z,5.23
2019-03-19T06:06:58.553Z,5.24
2019-03-19T06:10:12.689Z,5.26
2019-03-19T06:13:25.308Z,5.26
2019-03-19T06:14:29.727Z,5.29
2019-03-19T06:16:37.717Z,5.33
2019-03-19T06:17:42.231Z,5.31
2019-03-19T06:18:47.868Z,5.32
2019-03-19T06:20:56.082Z,5.34
2019-03-19T06:23:04.182Z,5.40
2019-03-19T06:27:21.648Z,5.41
2019-03-19T06:28:26.120Z,5.39
2019-03-19T06:31:37.718Z,5.42
2019-03-19T06:32:42.129Z,5.43
2019-03-19T06:34:50.743Z,5.45
2019-03-19T06:35:55.158Z,5.43
2019-03-19T06:36:59.561Z,5.45
2019-03-19T06:40:18.007Z,5.48
2019-03-19T06:41:22.503Z,5.47
2019-03-19T06:44:34.114Z,5.55
2019-03-19T06:46:42.104Z,5.56
2019-03-19T06:47:46.625Z,5.60
2019-03-19T06:53:05.492Z,5.64
2019-03-19T06:55:14.685Z,5.67
2019-03-19T06:57:22.893Z,5.69
2019-03-19T06:58:27.259Z,5.71
2019-03-19T06:59:31.632Z,5.76
2019-03-19T07:00:36.039Z,5.78
2019-03-19T07:01:40.469Z,5.77
2019-03-19T07:02:44.856Z,5.79
2019-03-19T07:05:57.027Z,5.77
2019-03-19T07:09:08.599Z,5.79
2019-03-19T07:11:17.696Z,5.84
2019-03-19T07:13:25.690Z,5.92
2019-03-19T07:18:44.565Z,6.07
2019-03-19T07:19:49.181Z,6.11
2019-03-19T07:23:00.718Z,6.21
2019-03-19T07:27:17.129Z,6.32
2019-03-19T07:30:28.705Z,6.44
2019-03-19T07:32:36.678Z,6.58
2019-03-19T07:36:51.850Z,7.14
2019-03-19T07:40:07.085Z,7.32
2019-03-19T07:44:22.418Z,7.52
2019-03-19T07:47:34.096Z,7.72
2019-03-19T07:51:49.288Z,8.17
2019-03-19T07:53:57.275Z,8.38
2019-03-19T07:56:05.255Z,8.48
2019-03-19T07:58:13.234Z,8.51
2019-03-19T08:01:25.417Z,8.45
2019-03-19T08:07:49.489Z,8.53
2019-03-19T08:11:01.015Z,8.64
2019-03-19T08:12:05.491Z,8.67
2019-03-19T08:13:09.895Z,8.65
2019-03-19T08:14:14.257Z,8.61
2019-03-19T08:15:20.768Z,8.57
2019-03-19T08:17:29.881Z,8.56
2019-03-19T08:19:37.886Z,8.65
2019-03-19T08:21:45.994Z,8.72
2019-03-19T08:23:53.993Z,8.72
2019-03-19T08:26:01.997Z,8.79
2019-03-19T08:27:06.709Z,8.94
2019-03-19T08:29:14.708Z,9.25
2019-03-19T08:30:20.449Z,9.43
2019-03-19T08:34:36.372Z,10.36
2019-03-19T08:35:41.270Z,10.83
2019-03-19T08:36:46.199Z,11.43
2019-03-19T08:44:13.265Z,16.33
2019-03-19T08:50:37.275Z,19.24
2019-03-19T08:51:41.670Z,19.60
2019-03-19T08:53:49.657Z,20.25
2019-03-19T08:54:54.040Z,20.38
2019-03-19T08:55:58.403Z,20.62
2019-03-19T09:00:20.917Z,21.26
2019-03-19T09:01:25.520Z,21.34
2019-03-19T09:02:30.938Z,21.52
2019-03-19T09:05:42.536Z,22.22
2019-03-19T09:08:54.360Z,22.38
2019-03-19T09:09:58.760Z,22.40
2019-03-19T09:13:10.361Z,23.19
2019-03-19T09:14:14.735Z,23.46
2019-03-19T09:17:31.199Z,24.23
2019-03-19T09:18:35.567Z,24.40
2019-03-19T09:19:39.952Z,24.54
2019-03-19T09:20:44.348Z,24.61
2019-03-19T09:21:48.722Z,24.76
2019-03-19T09:22:54.040Z,24.86
2019-03-19T09:25:02.057Z,25.09
2019-03-19T09:26:06.448Z,25.13
2019-03-19T09:29:18.980Z,25.74
2019-03-19T09:30:24.068Z,25.89
2019-03-19T09:35:42.894Z,26.68
2019-03-19T09:38:54.517Z,26.95
2019-03-19T09:42:06.146Z,27.05
2019-03-19T09:43:10.526Z,27.22
2019-03-19T09:45:19.448Z,27.29
2019-03-19T09:51:43.640Z,27.31
2019-03-19T09:53:51.648Z,27.33
2019-03-19T09:54:56.042Z,27.30
2019-03-19T09:59:12.192Z,27.26
2019-03-19T10:02:25.543Z,27.09
2019-03-19T10:05:38.267Z,26.80
2019-03-19T10:06:42.663Z,26.77
2019-03-19T10:15:14.054Z,26.78
2019-03-19T10:19:29.300Z,26.74
2019-03-19T10:20:33.751Z,26.53
2019-03-19T10:24:49.138Z,24.20
2019-03-19T10:25:53.755Z,23.42
2019-03-19T10:31:20.734Z,23.52
2019-03-19T10:34:32.344Z,24.63
2019-03-19T10:35:36.715Z,24.65
2019-03-19T10:37:45.029Z,24.41
2019-03-19T10:38:49.421Z,24.30
2019-03-19T10:42:01.132Z,23.81
2019-03-19T10:44:09.141Z,23.61
2019-03-19T10:49:29.399Z,22.74
2019-03-19T10:51:37.415Z,22.91
2019-03-19T10:52:41.819Z,22.90
2019-03-19T11:01:23.970Z,23.17
2019-03-19T11:02:28.374Z,23.32
2019-03-19T11:03:33.017Z,23.36
2019-03-19T11:07:48.366Z,23.24
2019-03-19T11:08:53.011Z,23.20
2019-03-19T11:09:57.406Z,23.13
2019-03-19T11:11:03.637Z,23.11
2019-03-19T11:16:25.502Z,23.11
2019-03-19T11:17:30.135Z,23.23
2019-03-19T11:18:34.809Z,23.24
2019-03-19T11:21:46.407Z,23.22
2019-03-19T11:22:50.800Z,23.15
2019-03-19T11:23:55.172Z,22.96
2019-03-19T11:28:10.564Z,23.07
2019-03-19T11:31:30.898Z,22.95
2019-03-19T11:34:42.485Z,23.31
2019-03-19T11:38:58.750Z,23.54
2019-03-19T11:41:08.238Z,23.62
2019-03-19T11:43:16.366Z,23.89
2019-03-19T11:45:24.700Z,24.46
2019-03-19T11:46:29.321Z,24.64
2019-03-19T11:49:40.900Z,24.91
2019-03-19T11:51:48.930Z,25.07
2019-03-19T11:52:53.416Z,25.12
2019-03-19T11:53:57.781Z,25.13
2019-03-19T11:56:05.881Z,25.18
2019-03-19T11:58:13.984Z,25.28
2019-03-19T12:03:41.537Z,25.47
2019-03-19T12:06:53.466Z,25.43
2019-03-19T12:07:57.851Z,25.47
2019-03-19T12:11:11.325Z,25.99
2019-03-19T12:12:15.743Z,26.04
2019-03-19T12:14:23.737Z,25.94
2019-03-19T12:15:28.381Z,25.81
2019-03-19T12:19:43.834Z,25.44
2019-03-19T12:20:48.215Z,25.37
2019-03-19T12:21:52.586Z,25.35
2019-03-19T12:22:56.993Z,25.16
2019-03-19T12:28:18.037Z,25.86
2019-03-19T12:31:29.657Z,25.95
2019-03-19T12:32:34.049Z,25.90
2019-03-19T12:35:45.608Z,25.90
2019-03-19T12:37:53.652Z,25.97
2019-03-19T12:42:08.849Z,25.77
2019-03-19T12:43:13.353Z,25.76
2019-03-19T12:44:17.760Z,25.76
2019-03-19T12:45:23.105Z,25.69
2019-03-19T12:47:31.133Z,25.80
2019-03-19T12:48:35.495Z,25.75
2019-03-19T12:50:43.479Z,25.79
2019-03-19T12:51:47.913Z,25.88
2019-03-19T12:52:52.325Z,25.88
2019-03-19T12:56:04.222Z,26.06
2019-03-19T12:57:08.740Z,26.05
2019-03-19T12:58:13.133Z,26.11
2019-03-19T13:03:33.237Z,26.14
2019-03-19T13:04:37.655Z,26.12
2019-03-19T13:07:49.273Z,26.18
2019-03-19T13:08:53.658Z,26.21
2019-03-19T13:12:05.297Z,26.18
2019-03-19T13:13:09.701Z,26.30
2019-03-19T13:17:25.845Z,26.37
2019-03-19T13:18:30.268Z,26.40
2019-03-19T13:19:34.668Z,26.44
2019-03-19T13:21:42.670Z,26.53
2019-03-19T13:22:47.040Z,26.66
2019-03-19T13:25:58.794Z,26.38
2019-03-19T13:28:07.025Z,26.36
2019-03-19T13:31:21.301Z,26.33
2019-03-19T13:32:28.157Z,26.25
2019-03-19T13:33:32.060Z,26.22
2019-03-19T13:34:37.474Z,26.20
2019-03-19T13:37:49.105Z,26.15
2019-03-19T13:38:53.467Z,26.14
2019-03-19T13:42:05.106Z,26.18
2019-03-19T13:44:13.125Z,26.14
2019-03-19T13:49:36.499Z,26.10
2019-03-19T13:52:48.128Z,26.08
2019-03-19T13:56:00.043Z,26.10
2019-03-19T14:00:16.773Z,26.16
2019-03-19T14:01:21.394Z,26.19
2019-03-19T14:02:25.779Z,26.18
2019-03-19T14:04:33.794Z,26.13
2019-03-19T14:08:49.118Z,26.02
2019-03-19T14:10:57.109Z,26.02
2019-03-19T14:12:01.529Z,26.06
2019-03-19T14:13:06.041Z,26.00
2019-03-19T14:14:11.568Z,26.04
2019-03-19T14:16:23.469Z,26.04
2019-03-19T14:17:27.875Z,26.09
2019-03-19T14:20:39.569Z,25.98
2019-03-19T14:21:43.974Z,25.91
2019-03-19T14:22:48.376Z,25.93
2019-03-19T14:23:53.461Z,25.86
2019-03-19T14:29:12.313Z,25.56
2019-03-19T14:31:24.075Z,25.50
2019-03-19T14:35:39.274Z,25.46
2019-03-19T14:36:44.098Z,25.33
2019-03-19T14:39:55.745Z,25.11
2019-03-19T14:41:00.145Z,25.12
2019-03-19T14:44:11.877Z,24.76
2019-03-19T14:46:21.310Z,24.49
2019-03-19T14:47:28.148Z,24.36
2019-03-19T14:49:46.060Z,24.22
2019-03-19T14:50:42.358Z,24.18
2019-03-19T14:51:46.756Z,24.10
2019-03-19T14:53:55.144Z,24.01
2019-03-19T14:59:13.991Z,23.76
2019-03-19T15:00:19.084Z,23.57
2019-03-19T15:02:27.117Z,23.44
2019-03-19T15:04:35.137Z,23.33
2019-03-19T15:05:39.533Z,23.26
2019-03-19T15:06:43.925Z,23.24
2019-03-19T15:07:48.537Z,23.20
2019-03-19T15:08:52.919Z,23.15
2019-03-19T15:09:58.224Z,23.09
2019-03-19T15:15:20.490Z,22.84
2019-03-19T15:16:24.913Z,22.79
2019-03-19T15:17:29.305Z,22.75
2019-03-19T15:18:33.685Z,22.66
2019-03-19T15:20:41.675Z,22.51
2019-03-19T15:22:49.788Z,22.37
2019-03-19T15:29:12.476Z,22.06
2019-03-19T15:32:24.777Z,21.91
2019-03-19T15:34:32.786Z,21.85
2019-03-19T15:37:44.621Z,21.73
2019-03-19T15:38:49.258Z,21.70
2019-03-19T15:40:57.260Z,21.64
2019-03-19T15:42:01.688Z,21.54
2019-03-19T15:43:06.105Z,21.51
2019-03-19T15:44:10.489Z,21.51
2019-03-19T15:45:19.286Z,21.46
2019-03-19T15:50:38.105Z,21.31
2019-03-19T15:52:46.156Z,21.17
2019-03-19T15:57:01.675Z,20.94
2019-03-19T16:02:25.173Z,20.75
2019-03-19T16:04:33.409Z,20.63
2019-03-19T16:08:48.653Z,20.45
2019-03-19T16:09:53.040Z,20.42
2019-03-19T16:10:57.454Z,20.34
2019-03-19T16:14:09.370Z,20.25
2019-03-19T16:17:22.105Z,20.04
2019-03-19T16:18:26.501Z,20.01
2019-03-19T16:19:30.983Z,19.97
2019-03-19T16:20:35.342Z,19.90
2019-03-19T16:21:39.825Z,19.86
2019-03-19T16:23:48.712Z,19.81
2019-03-19T16:25:56.710Z,19.66
2019-03-19T16:27:01.155Z,19.54
2019-03-19T16:28:05.664Z,19.49
2019-03-19T16:31:20.165Z,19.43
2019-03-19T16:32:24.549Z,19.39
2019-03-19T16:36:39.817Z,19.24
2019-03-19T16:37:44.226Z,19.17
2019-03-19T16:41:59.450Z,18.94
2019-03-19T16:43:03.957Z,18.92
2019-03-19T16:46:16.737Z,18.76
2019-03-19T16:47:21.148Z,18.74
2019-03-19T16:50:33.242Z,18.48
2019-03-19T16:52:41.239Z,18.34
2019-03-19T16:54:49.261Z,18.23
2019-03-19T17:02:29.541Z,17.87
2019-03-19T17:04:37.641Z,17.83
2019-03-19T17:06:46.669Z,17.68
2019-03-19T17:07:51.089Z,17.63
2019-03-19T17:09:59.052Z,17.53
2019-03-19T17:11:03.489Z,17.54
2019-03-19T17:12:08.529Z,17.46
2019-03-19T17:13:12.918Z,17.40
2019-03-19T17:14:17.624Z,17.34
2019-03-19T17:15:22.137Z,17.31
2019-03-19T17:16:26.781Z,17.25
2019-03-19T17:19:38.578Z,17.09
2019-03-19T17:22:50.214Z,17.00
2019-03-19T17:24:58.340Z,16.92
2019-03-19T17:27:06.448Z,16.72
2019-03-19T17:28:10.852Z,16.64
2019-03-19T17:30:35.114Z,16.64
2019-03-19T17:32:43.256Z,16.52
2019-03-19T17:34:51.491Z,16.42
2019-03-19T17:35:55.961Z,16.43
2019-03-19T17:37:01.258Z,16.32
2019-03-19T17:39:09.284Z,16.34
2019-03-19T17:40:14.501Z,16.31
2019-03-19T17:44:30.412Z,16.08
2019-03-19T17:45:34.832Z,16.04
2019-03-19T17:46:39.228Z,16.03
2019-03-19T17:47:43.650Z,16.03
2019-03-19T17:49:08.515Z,16.05
2019-03-19T17:51:49.108Z,15.86
2019-03-19T17:52:54.486Z,15.79
2019-03-19T17:55:10.377Z,15.74
2019-03-19T17:56:14.782Z,15.68
2019-03-19T17:58:22.817Z,15.65
2019-03-19T17:59:27.201Z,15.57
2019-03-19T18:00:31.610Z,15.55
2019-03-19T18:04:46.880Z,15.42
2019-03-19T18:05:51.360Z,15.38
2019-03-19T18:07:59.441Z,15.32
2019-03-19T18:11:14.982Z,15.20
2019-03-19T18:12:20.272Z,15.17
2019-03-19T18:13:24.669Z,15.14
2019-03-19T18:14:29.052Z,15.11
2019-03-19T18:15:33.539Z,15.11
2019-03-19T18:18:45.584Z,15.00
2019-03-19T18:20:53.908Z,14.93
2019-03-19T18:21:58.409Z,14.85
2019-03-19T18:24:06.409Z,14.81
2019-03-19T18:28:26.284Z,14.77
2019-03-19T18:29:30.703Z,14.76
2019-03-19T18:30:35.111Z,14.69
2019-03-19T18:32:44.362Z,14.66
2019-03-19T18:33:48.853Z,14.68
2019-03-19T18:34:53.270Z,14.64
2019-03-19T18:35:57.693Z,14.62
2019-03-19T18:39:09.330Z,14.52
2019-03-19T18:40:14.839Z,14.51
2019-03-19T18:42:22.900Z,14.46
2019-03-19T18:45:34.501Z,14.38
2019-03-19T18:47:42.586Z,14.39
2019-03-19T18:49:51.595Z,14.29
2019-03-19T18:51:59.624Z,14.26
2019-03-19T18:54:07.665Z,14.22
2019-03-19T18:55:13.212Z,14.21
2019-03-19T18:56:17.609Z,14.20
2019-03-19T18:58:25.569Z,14.10
2019-03-19T19:00:33.608Z,14.07
2019-03-19T19:01:38.001Z,14.01
2019-03-19T19:06:56.817Z,13.93
2019-03-19T19:09:07.299Z,13.93
2019-03-19T19:10:14.591Z,13.89
2019-03-19T19:12:22.680Z,13.79
2019-03-19T19:14:30.770Z,13.74
2019-03-19T19:15:35.390Z,13.76
2019-03-19T19:16:39.803Z,13.75
2019-03-19T19:21:58.616Z,13.69
2019-03-19T19:24:06.671Z,13.70
2019-03-19T19:25:13.954Z,13.69
2019-03-19T19:26:19.381Z,13.64
2019-03-19T19:27:23.802Z,13.66
2019-03-19T19:28:28.224Z,13.64
2019-03-19T19:29:32.588Z,13.65
2019-03-19T19:34:52.405Z,13.55
2019-03-19T19:35:56.822Z,13.54
2019-03-19T19:37:01.338Z,13.49
2019-03-19T19:38:05.842Z,13.52
2019-03-19T19:42:23.244Z,13.44
2019-03-19T19:43:28.649Z,13.45
2019-03-19T19:44:34.148Z,13.43
2019-03-19T19:48:50.452Z,13.42
2019-03-19T19:49:55.166Z,13.37
2019-03-19T19:54:10.448Z,13.34
2019-03-19T20:00:34.042Z,13.21
2019-03-19T20:04:49.262Z,13.19
2019-03-19T20:05:53.761Z,13.17
2019-03-19T20:10:16.781Z,13.09
2019-03-19T20:12:24.752Z,13.06
2019-03-19T20:15:36.397Z,13.01
2019-03-19T20:16:41.395Z,12.92
2019-03-19T20:18:49.377Z,12.90
2019-03-19T20:22:01.192Z,12.82
2019-03-19T20:23:05.607Z,12.80
2019-03-19T20:25:14.432Z,12.81
2019-03-19T20:27:22.439Z,12.73
2019-03-19T20:29:30.473Z,12.70
2019-03-19T20:30:34.956Z,12.69
2019-03-19T20:33:49.388Z,12.61
2019-03-19T20:34:53.734Z,12.61
2019-03-19T20:39:10.065Z,12.45
2019-03-19T20:40:16.034Z,12.43
2019-03-19T20:41:20.448Z,12.44
2019-03-19T20:42:25.919Z,12.40
2019-03-19T20:45:37.488Z,12.35
2019-03-19T20:46:41.914Z,12.33
2019-03-19T20:49:54.216Z,12.22
2019-03-19T20:50:58.631Z,12.17
2019-03-19T20:52:04.148Z,12.18
2019-03-19T20:56:19.379Z,12.17
2019-03-19T20:57:23.758Z,12.16
2019-03-19T20:58:29.299Z,12.11
2019-03-19T20:59:33.640Z,12.08
2019-03-19T21:00:38.117Z,12.08
2019-03-19T21:01:42.512Z,12.09
2019-03-19T21:03:50.625Z,12.11
2019-03-19T21:04:55.031Z,12.11
2019-03-19T21:05:59.540Z,12.12
2019-03-19T21:07:03.956Z,12.10
2019-03-19T21:08:08.355Z,12.09
2019-03-19T21:10:18.840Z,12.07
2019-03-19T21:13:30.445Z,12.00
2019-03-19T21:14:35.069Z,11.96
2019-03-19T21:15:39.756Z,11.92
2019-03-19T21:16:44.157Z,11.89
2019-03-19T21:17:49.101Z,11.86
2019-03-19T21:19:57.115Z,11.85
2019-03-19T21:26:19.649Z,11.80
2019-03-19T21:27:24.045Z,11.78
2019-03-19T21:29:32.336Z,11.72
2019-03-19T21:32:44.027Z,11.68
2019-03-19T21:34:53.190Z,11.67
2019-03-19T21:35:57.550Z,11.66
2019-03-19T21:37:02.009Z,11.66
2019-03-19T21:38:06.403Z,11.66
2019-03-19T21:40:14.742Z,11.62
2019-03-19T21:43:26.713Z,11.59
2019-03-19T21:45:34.738Z,11.56
2019-03-19T21:46:39.129Z,11.52
2019-03-19T21:48:49.270Z,11.51
2019-03-19T21:49:53.936Z,11.50
2019-03-19T21:52:03.008Z,11.45
2019-03-19T21:57:21.923Z,11.41
2019-03-19T22:00:33.567Z,11.28
2019-03-19T22:01:37.968Z,11.27
2019-03-19T22:02:42.395Z,11.26
2019-03-19T22:04:51.358Z,11.24
2019-03-19T22:05:55.820Z,11.25
2019-03-19T22:07:00.283Z,11.25
2019-03-19T22:14:28.847Z,11.14
2019-03-19T22:16:36.945Z,11.10
2019-03-19T22:17:41.369Z,11.11
2019-03-19T22:18:45.785Z,11.09
2019-03-19T22:23:01.845Z,11.05
2019-03-19T22:24:06.285Z,11.06
2019-03-19T22:25:13.874Z,11.04
2019-03-19T22:27:21.848Z,10.98
2019-03-19T22:28:26.385Z,10.97
2019-03-19T22:29:31.178Z,10.98
2019-03-19T22:31:40.227Z,10.94
2019-03-19T22:32:44.742Z,10.90
2019-03-19T22:33:49.115Z,10.87
2019-03-19T22:35:57.140Z,10.85
2019-03-19T22:40:15.243Z,10.78
2019-03-19T22:41:19.685Z,10.79
2019-03-19T22:42:24.108Z,10.79
2019-03-19T22:43:29.371Z,10.78
2019-03-19T22:44:33.715Z,10.80
2019-03-19T22:46:44.204Z,10.76
2019-03-19T22:47:48.599Z,10.77
2019-03-19T22:48:53.023Z,10.78
2019-03-19T22:56:19.387Z,10.71
2019-03-19T22:57:23.783Z,10.69
2019-03-19T23:00:35.393Z,10.65
2019-03-19T23:02:44.111Z,10.65
2019-03-19T23:05:56.618Z,10.64
2019-03-19T23:08:04.936Z,10.61
2019-03-19T23:09:09.432Z,10.61
2019-03-19T23:11:17.747Z,10.58
2019-03-19T23:12:22.146Z,10.58
2019-03-19T23:15:35.839Z,10.60
2019-03-19T23:18:48.727Z,10.62
2019-03-19T23:19:53.447Z,10.60
2019-03-19T23:23:05.299Z,10.60
2019-03-19T23:25:13.570Z,10.62
2019-03-19T23:26:18.248Z,10.63
2019-03-19T23:29:29.944Z,10.55
2019-03-19T23:31:38.265Z,10.56
2019-03-19T23:34:49.937Z,10.53
2019-03-19T23:35:54.321Z,10.52
2019-03-19T23:36:58.745Z,10.51
2019-03-19T23:38:03.178Z,10.51
2019-03-19T23:40:13.723Z,10.50
2019-03-19T23:42:21.833Z,10.47
2019-03-19T23:45:34.121Z,10.43
2019-03-19T23:46:38.494Z,10.43
2019-03-19T23:47:42.899Z,10.42
2019-03-19T23:49:51.203Z,10.38
2019-03-19T23:50:55.566Z,10.32
2019-03-19T23:55:11.160Z,10.24
2019-03-19T23:56:15.877Z,10.22
2019-03-19T23:57:20.398Z,10.22
2019-03-19T23:59:28.498Z,10.16
